createdAt,value
2023-03-15T00:02:24.357Z,41.30
2023-03-15T00:04:43.531Z,41.37
2023-03-15T00:07:48.376Z,41.32
2023-03-15T00:10:07.605Z,41.32
2023-03-15T00:14:27.269Z,41.18
2023-03-15T00:15:28.277Z,41.13
2023-03-15T00:21:17.719Z,41.10
2023-03-15T00:24:56.302Z,41.01
2023-03-15T00:27:15.232Z,40.96
2023-03-15T00:29:34.532Z,40.96
2023-03-15T00:30:35.427Z,41.01
2023-03-15T00:34:14.585Z,40.88
2023-03-15T00:35:14.415Z,40.96
2023-03-15T00:37:33.605Z,41.04
2023-03-15T00:42:51.515Z,40.79
2023-03-15T00:43:52.190Z,40.82
2023-03-15T00:46:10.583Z,40.81
2023-03-15T00:47:11.342Z,40.92
2023-03-15T00:50:26.329Z,40.82
2023-03-15T00:53:54.088Z,40.73
2023-03-15T00:56:13.316Z,40.73
2023-03-15T00:57:14.232Z,40.69
2023-03-15T00:59:32.418Z,40.74
2023-03-15T01:00:33.337Z,40.59
2023-03-15T01:08:01.407Z,40.57
2023-03-15T01:10:20.334Z,40.52
2023-03-15T01:12:40.239Z,40.51
2023-03-15T01:15:19.424Z,40.51
2023-03-15T01:17:59.882Z,40.51
2023-03-15T01:20:19.094Z,40.46
2023-03-15T01:21:19.794Z,40.54
2023-03-15T01:22:19.756Z,40.51
2023-03-15T01:25:53.946Z,40.48
2023-03-15T01:29:25.113Z,40.42
2023-03-15T01:30:25.960Z,40.31
2023-03-15T01:32:44.179Z,40.53
2023-03-15T01:35:03.287Z,40.44
2023-03-15T01:37:22.625Z,40.51
2023-03-15T01:39:54.067Z,40.44
2023-03-15T01:44:21.581Z,40.45
2023-03-15T01:45:22.844Z,40.39
2023-03-15T01:46:37.337Z,40.38
2023-03-15T01:47:27.000Z,40.34
2023-03-15T01:51:06.575Z,40.46
2023-03-15T01:53:25.531Z,40.42
2023-03-15T01:55:44.850Z,40.40
2023-03-15T01:59:48.567Z,40.38
2023-03-15T02:00:48.565Z,40.34
2023-03-15T02:01:49.585Z,40.25
2023-03-15T02:04:20.117Z,40.41
2023-03-15T02:06:39.296Z,40.30
2023-03-15T02:10:53.783Z,40.30
2023-03-15T02:11:54.784Z,40.27
2023-03-15T02:14:13.290Z,40.36
2023-03-15T02:15:13.894Z,40.27
2023-03-15T02:17:32.172Z,40.33
2023-03-15T02:18:33.053Z,40.32
2023-03-15T02:28:58.626Z,40.11
2023-03-15T02:32:35.659Z,40.17
2023-03-15T02:57:19.050Z,39.40
2023-03-15T02:58:19.835Z,39.37
2023-03-15T02:59:19.833Z,39.31
2023-03-15T03:00:19.899Z,39.30
2023-03-15T03:01:20.010Z,39.22
2023-03-15T03:02:19.968Z,39.29
2023-03-15T03:05:57.330Z,39.19
2023-03-15T03:08:16.668Z,39.06
2023-03-15T03:10:35.563Z,39.07
2023-03-15T03:15:10.320Z,38.79
2023-03-15T03:16:11.049Z,38.67
2023-03-15T03:18:29.423Z,38.64
2023-03-15T03:19:30.111Z,38.52
2023-03-15T03:20:30.095Z,38.47
2023-03-15T03:21:30.082Z,38.40
2023-03-15T03:22:30.154Z,38.44
2023-03-15T03:23:30.067Z,38.37
2023-03-15T03:24:29.136Z,38.37
2023-03-15T03:25:30.051Z,38.37
2023-03-15T03:26:30.046Z,38.36
2023-03-15T03:27:29.025Z,38.30
2023-03-15T03:28:30.045Z,38.25
2023-03-15T03:30:48.283Z,38.26
2023-03-15T03:31:49.126Z,38.12
2023-03-15T03:35:34.559Z,38.04
2023-03-15T03:42:46.588Z,37.73
2023-03-15T03:43:46.512Z,37.68
2023-03-15T03:44:47.533Z,37.72
2023-03-15T03:47:05.719Z,37.64
2023-03-15T03:49:28.287Z,37.75
2023-03-15T03:51:47.540Z,37.72
2023-03-15T03:52:48.268Z,37.69
2023-03-15T03:53:48.261Z,37.65
2023-03-15T03:54:48.266Z,37.55
2023-03-15T03:57:06.622Z,37.59
2023-03-15T03:58:06.393Z,37.46
2023-03-15T04:01:31.368Z,37.57
2023-03-15T04:03:50.329Z,37.48
2023-03-15T04:10:18.984Z,37.33
2023-03-15T04:12:37.977Z,37.30
2023-03-15T04:16:45.457Z,37.34
2023-03-15T04:19:04.436Z,37.32
2023-03-15T04:20:05.376Z,37.28
2023-03-15T04:21:05.451Z,37.23
2023-03-15T04:23:30.365Z,37.21
2023-03-15T04:24:31.288Z,37.30
2023-03-15T04:25:31.238Z,37.20
2023-03-15T04:26:31.221Z,37.19
2023-03-15T04:29:10.007Z,37.19
2023-03-15T04:33:22.822Z,37.19
2023-03-15T04:37:35.645Z,37.18
2023-03-15T04:41:49.288Z,37.07
2023-03-15T04:42:50.318Z,37.06
2023-03-15T04:45:34.107Z,37.11
2023-03-15T04:47:53.288Z,37.20
2023-03-15T04:48:54.152Z,37.06
2023-03-15T04:49:53.245Z,37.10
2023-03-15T04:52:32.107Z,37.19
2023-03-15T04:55:20.179Z,37.08
2023-03-15T04:57:39.395Z,37.14
2023-03-15T04:58:40.171Z,37.07
2023-03-15T04:59:39.084Z,37.02
2023-03-15T05:00:40.133Z,37.09
2023-03-15T05:04:47.373Z,37.12
2023-03-15T05:05:48.160Z,37.06
2023-03-15T05:06:48.156Z,37.09
2023-03-15T05:09:29.792Z,37.13
2023-03-15T05:12:18.951Z,37.09
2023-03-15T05:13:19.891Z,37.13
2023-03-15T05:14:19.748Z,37.08
2023-03-15T05:15:19.781Z,36.98
2023-03-15T05:16:18.851Z,37.01
2023-03-15T05:20:17.787Z,37.06
2023-03-15T05:21:18.730Z,37.18
2023-03-15T05:22:18.766Z,37.03
2023-03-15T05:23:18.887Z,37.06
2023-03-15T05:25:38.747Z,37.04
2023-03-15T05:29:15.428Z,37.14
2023-03-15T05:32:53.636Z,37.14
2023-03-15T05:37:53.841Z,37.10
2023-03-15T05:44:43.923Z,37.00
2023-03-15T05:45:44.919Z,36.93
2023-03-15T05:48:03.135Z,36.95
2023-03-15T05:54:00.430Z,36.94
2023-03-15T05:55:01.183Z,36.97
2023-03-15T05:56:01.215Z,36.97
2023-03-15T05:57:01.265Z,36.97
2023-03-15T05:59:20.118Z,37.00
2023-03-15T06:01:39.132Z,37.03
2023-03-15T06:03:58.023Z,37.04
2023-03-15T06:04:58.984Z,37.00
2023-03-15T06:05:58.942Z,37.01
2023-03-15T06:06:57.962Z,36.97
2023-03-15T06:07:58.937Z,36.98
2023-03-15T06:08:58.958Z,36.95
2023-03-15T06:09:58.933Z,36.93
2023-03-15T06:10:58.927Z,36.96
2023-03-15T06:11:58.898Z,36.94
2023-03-15T06:12:57.894Z,36.93
2023-03-15T06:13:58.909Z,36.90
2023-03-15T06:14:57.900Z,36.95
2023-03-15T06:15:57.885Z,36.95
2023-03-15T06:16:57.956Z,36.95
2023-03-15T06:17:58.868Z,36.92
2023-03-15T06:18:58.883Z,36.84
2023-03-15T06:19:57.861Z,36.90
2023-03-15T06:20:58.825Z,36.87
2023-03-15T06:21:58.834Z,36.89
2023-03-15T06:22:58.825Z,36.84
2023-03-15T06:23:58.834Z,36.94
2023-03-15T06:24:57.822Z,37.10
2023-03-15T06:25:58.818Z,37.15
2023-03-15T06:26:58.788Z,37.04
2023-03-15T06:27:58.786Z,37.12
2023-03-15T06:28:58.774Z,37.16
2023-03-15T06:29:58.783Z,37.06
2023-03-15T06:30:58.841Z,37.19
2023-03-15T06:31:58.772Z,37.34
2023-03-15T06:32:58.917Z,37.57
2023-03-15T06:33:58.876Z,37.60
2023-03-15T06:34:57.900Z,37.63
2023-03-15T06:35:59.036Z,37.55
2023-03-15T06:36:58.996Z,37.57
2023-03-15T06:37:59.028Z,37.65
2023-03-15T06:38:59.037Z,37.78
2023-03-15T06:39:59.039Z,37.71
2023-03-15T06:40:59.065Z,37.99
2023-03-15T06:41:59.082Z,37.97
2023-03-15T06:42:58.110Z,38.22
2023-03-15T06:43:59.264Z,38.24
2023-03-15T06:44:59.196Z,38.64
2023-03-15T06:45:59.196Z,39.08
2023-03-15T06:46:59.218Z,38.97
2023-03-15T06:47:59.248Z,39.02
2023-03-15T06:48:59.337Z,39.15
2023-03-15T06:49:59.301Z,39.36
2023-03-15T06:50:59.300Z,39.33
2023-03-15T06:51:58.321Z,39.70
2023-03-15T06:52:58.363Z,39.71
2023-03-15T06:53:59.395Z,39.48
2023-03-15T06:54:59.449Z,39.51
2023-03-15T06:55:59.481Z,39.25
2023-03-15T06:56:59.558Z,39.43
2023-03-15T06:57:59.552Z,39.18
2023-03-15T06:58:59.588Z,39.29
2023-03-15T06:59:59.642Z,39.58
2023-03-15T07:00:59.692Z,39.60
2023-03-15T07:01:58.658Z,39.54
2023-03-15T07:02:59.777Z,39.49
2023-03-15T07:03:59.709Z,39.54
2023-03-15T07:04:58.729Z,39.65
2023-03-15T07:05:59.745Z,39.65
2023-03-15T07:06:59.773Z,39.54
2023-03-15T07:07:59.797Z,39.48
2023-03-15T07:08:58.831Z,39.42
2023-03-15T07:09:58.847Z,39.34
2023-03-15T07:10:59.872Z,39.25
2023-03-15T07:11:59.888Z,39.18
2023-03-15T07:12:59.917Z,39.24
2023-03-15T07:13:59.981Z,39.15
2023-03-15T07:14:59.987Z,39.16
2023-03-15T07:16:00.094Z,39.05
2023-03-15T07:17:00.113Z,39.00
2023-03-15T07:18:00.105Z,38.93
2023-03-15T07:18:59.118Z,38.91
2023-03-15T07:20:00.155Z,38.78
2023-03-15T07:21:00.277Z,38.78
2023-03-15T07:22:00.240Z,38.72
2023-03-15T07:23:00.268Z,38.69
2023-03-15T07:24:00.317Z,38.74
2023-03-15T07:25:00.359Z,38.66
2023-03-15T07:25:59.392Z,38.64
2023-03-15T07:26:59.447Z,38.63
2023-03-15T07:28:00.461Z,38.62
2023-03-15T07:29:00.510Z,38.65
2023-03-15T07:30:00.563Z,38.61
2023-03-15T07:31:00.595Z,38.66
2023-03-15T07:31:59.658Z,38.60
2023-03-15T07:33:00.904Z,38.54
2023-03-15T07:34:00.709Z,38.58
2023-03-15T07:35:00.738Z,38.54
2023-03-15T07:36:00.828Z,38.50
2023-03-15T07:37:00.817Z,38.41
2023-03-15T07:38:00.837Z,38.41
2023-03-15T07:39:00.864Z,38.28
2023-03-15T07:40:00.883Z,38.17
2023-03-15T07:41:00.891Z,38.16
2023-03-15T07:42:00.914Z,38.03
2023-03-15T07:43:00.943Z,38.01
2023-03-15T07:44:00.986Z,37.95
2023-03-15T07:45:01.000Z,37.91
2023-03-15T07:46:01.018Z,37.87
2023-03-15T07:47:01.152Z,37.80
2023-03-15T07:48:00.042Z,37.72
2023-03-15T07:49:01.054Z,37.80
2023-03-15T07:50:00.083Z,37.69
2023-03-15T07:51:00.123Z,37.68
2023-03-15T07:52:01.086Z,37.64
2023-03-15T07:53:00.132Z,37.62
2023-03-15T07:54:01.213Z,37.69
2023-03-15T07:55:00.135Z,37.52
2023-03-15T07:56:01.146Z,37.47
2023-03-15T07:57:01.177Z,37.50
2023-03-15T07:58:01.165Z,37.42
2023-03-15T07:59:01.231Z,37.33
2023-03-15T08:00:01.201Z,37.24
2023-03-15T08:01:01.205Z,37.23
2023-03-15T08:02:02.399Z,37.19
2023-03-15T08:03:01.238Z,37.15
2023-03-15T08:04:01.163Z,37.10
2023-03-15T08:05:01.156Z,37.03
2023-03-15T08:06:01.152Z,37.03
2023-03-15T08:07:01.141Z,37.09
2023-03-15T08:08:00.135Z,37.00
2023-03-15T08:09:01.205Z,36.89
2023-03-15T08:10:01.130Z,36.89
2023-03-15T08:11:01.107Z,36.92
2023-03-15T08:12:01.118Z,36.85
2023-03-15T08:13:01.097Z,36.87
2023-03-15T08:14:01.086Z,36.77
2023-03-15T08:15:01.114Z,36.83
2023-03-15T08:16:00.208Z,36.69
2023-03-15T08:17:00.109Z,36.69
2023-03-15T08:18:01.100Z,36.72
2023-03-15T08:19:01.062Z,36.63
2023-03-15T08:20:01.119Z,36.63
2023-03-15T08:21:00.098Z,36.59
2023-03-15T08:22:01.062Z,36.57
2023-03-15T08:23:00.046Z,36.51
2023-03-15T08:24:01.090Z,36.44
2023-03-15T08:25:00.047Z,36.40
2023-03-15T08:26:00.031Z,36.38
2023-03-15T08:27:00.992Z,36.42
2023-03-15T08:28:01.019Z,36.46
2023-03-15T08:29:00.995Z,36.30
2023-03-15T08:30:00.994Z,36.29
2023-03-15T08:31:01.007Z,36.32
2023-03-15T08:32:00.098Z,36.21
2023-03-15T08:33:00.999Z,36.27
2023-03-15T08:34:00.950Z,36.20
2023-03-15T08:35:00.968Z,36.23
2023-03-15T08:36:00.993Z,36.26
2023-03-15T08:37:00.932Z,36.18
2023-03-15T08:38:00.915Z,36.09
2023-03-15T08:39:00.929Z,36.05
2023-03-15T08:40:00.942Z,35.92
2023-03-15T08:41:00.907Z,35.93
2023-03-15T08:41:59.881Z,35.95
2023-03-15T08:43:00.882Z,36.01
2023-03-15T08:43:59.876Z,35.99
2023-03-15T08:45:00.878Z,35.99
2023-03-15T08:46:02.061Z,35.97
2023-03-15T08:47:00.940Z,35.96
2023-03-15T08:48:00.839Z,36.19
2023-03-15T08:48:59.832Z,36.28
2023-03-15T08:50:01.237Z,36.65
2023-03-15T08:51:00.825Z,37.41
2023-03-15T08:52:00.836Z,37.26
2023-03-15T08:53:00.793Z,36.68
2023-03-15T08:54:00.832Z,36.63
2023-03-15T08:55:00.795Z,35.64
2023-03-15T08:56:00.781Z,34.83
2023-03-15T08:57:00.921Z,34.42
2023-03-15T08:58:00.760Z,34.43
2023-03-15T08:59:00.796Z,34.04
2023-03-15T08:59:59.818Z,33.36
2023-03-15T09:01:00.849Z,33.31
2023-03-15T09:02:01.043Z,33.38
2023-03-15T09:03:00.897Z,33.45
2023-03-15T09:04:00.950Z,33.43
2023-03-15T09:05:00.950Z,33.49
2023-03-15T09:05:59.905Z,33.45
2023-03-15T09:07:00.904Z,33.52
2023-03-15T09:08:00.935Z,33.52
2023-03-15T09:08:59.948Z,33.56
2023-03-15T09:09:59.956Z,33.64
2023-03-15T09:11:00.004Z,33.70
2023-03-15T09:12:01.093Z,33.71
2023-03-15T09:13:01.129Z,33.93
2023-03-15T09:14:00.170Z,33.95
2023-03-15T09:15:01.212Z,34.16
2023-03-15T09:16:01.292Z,34.36
2023-03-15T09:17:00.352Z,34.48
2023-03-15T09:18:00.382Z,34.43
2023-03-15T09:19:01.427Z,34.70
2023-03-15T09:20:01.466Z,34.75
2023-03-15T09:21:01.497Z,34.91
2023-03-15T09:22:16.088Z,34.97
2023-03-15T09:23:01.596Z,35.15
2023-03-15T09:24:00.548Z,35.48
2023-03-15T09:25:01.535Z,35.48
2023-03-15T09:26:01.563Z,35.68
2023-03-15T09:27:01.504Z,35.73
2023-03-15T09:28:01.503Z,35.79
2023-03-15T09:29:00.521Z,35.95
2023-03-15T09:30:01.530Z,36.09
2023-03-15T09:31:01.516Z,36.26
2023-03-15T09:32:00.468Z,36.35
2023-03-15T09:33:01.462Z,36.59
2023-03-15T09:34:00.440Z,36.57
2023-03-15T09:35:01.452Z,36.63
2023-03-15T09:36:01.529Z,36.80
2023-03-15T09:37:01.443Z,37.52
2023-03-15T09:38:01.424Z,37.17
2023-03-15T09:39:01.422Z,37.19
2023-03-15T09:40:01.440Z,37.03
2023-03-15T09:41:01.395Z,37.29
2023-03-15T09:42:01.398Z,37.88
2023-03-15T09:43:00.379Z,34.26
2023-03-15T09:44:01.386Z,32.93
2023-03-15T09:45:01.807Z,31.90
2023-03-15T09:46:01.479Z,32.28
2023-03-15T09:47:01.360Z,33.91
2023-03-15T09:48:01.352Z,34.86
2023-03-15T09:49:01.340Z,35.40
2023-03-15T09:50:01.359Z,35.36
2023-03-15T09:51:01.355Z,35.09
2023-03-15T09:52:01.350Z,35.15
2023-03-15T09:53:01.326Z,34.83
2023-03-15T09:54:01.345Z,34.99
2023-03-15T09:55:01.792Z,34.94
2023-03-15T09:56:01.291Z,32.87
2023-03-15T09:57:00.284Z,33.13
2023-03-15T09:58:00.276Z,32.79
2023-03-15T09:59:01.301Z,33.76
2023-03-15T10:00:01.329Z,33.92
2023-03-15T10:01:01.292Z,33.58
2023-03-15T10:02:01.300Z,33.50
2023-03-15T10:03:01.247Z,33.67
2023-03-15T10:04:01.320Z,33.42
2023-03-15T10:05:01.261Z,33.48
2023-03-15T10:06:01.252Z,33.46
2023-03-15T10:07:01.266Z,33.53
2023-03-15T10:08:01.251Z,33.38
2023-03-15T10:09:01.318Z,33.38
2023-03-15T10:10:00.355Z,33.28
2023-03-15T10:11:01.402Z,33.33
2023-03-15T10:12:01.461Z,33.25
2023-03-15T10:13:01.511Z,33.36
2023-03-15T10:14:00.606Z,33.28
2023-03-15T10:15:01.647Z,33.48
2023-03-15T10:16:01.668Z,33.13
2023-03-15T10:17:01.713Z,33.38
2023-03-15T10:18:00.740Z,33.41
2023-03-15T10:19:01.768Z,33.44
2023-03-15T10:20:01.835Z,33.52
2023-03-15T10:21:01.869Z,33.48
2023-03-15T10:22:00.918Z,33.58
2023-03-15T10:23:01.976Z,33.42
2023-03-15T10:24:01.997Z,33.52
2023-03-15T10:25:01.082Z,33.56
2023-03-15T10:26:02.795Z,33.55
2023-03-15T10:27:01.126Z,33.45
2023-03-15T10:28:01.210Z,33.51
2023-03-15T10:29:01.221Z,33.56
2023-03-15T10:30:01.254Z,33.62
2023-03-15T10:31:02.418Z,33.53
2023-03-15T10:32:02.396Z,33.74
2023-03-15T10:33:02.482Z,33.65
2023-03-15T10:34:01.437Z,33.69
2023-03-15T10:35:02.487Z,33.67
2023-03-15T10:36:11.433Z,33.65
2023-03-15T10:37:02.587Z,33.68
2023-03-15T10:38:02.500Z,33.76
2023-03-15T10:39:01.501Z,33.76
2023-03-15T10:40:02.492Z,33.72
2023-03-15T10:41:02.499Z,33.62
2023-03-15T10:42:02.492Z,33.53
2023-03-15T10:43:02.496Z,33.72
2023-03-15T10:44:02.482Z,33.59
2023-03-15T10:45:02.443Z,33.38
2023-03-15T10:46:02.453Z,33.57
2023-03-15T10:47:04.938Z,33.63
2023-03-15T10:48:02.450Z,32.74
2023-03-15T10:49:02.512Z,31.03
2023-03-15T10:50:02.425Z,32.44
2023-03-15T10:51:02.788Z,32.26
2023-03-15T10:52:02.494Z,30.85
2023-03-15T10:53:02.413Z,27.14
2023-03-15T10:54:02.415Z,23.70
2023-03-15T10:55:04.576Z,24.96
2023-03-15T10:56:02.445Z,25.68
2023-03-15T10:57:02.393Z,27.58
2023-03-15T10:58:01.404Z,28.12
2023-03-15T10:59:12.346Z,28.58
2023-03-15T11:00:02.365Z,28.79
2023-03-15T11:01:02.356Z,29.15
2023-03-15T11:02:02.399Z,29.15
2023-03-15T11:03:02.446Z,29.31
2023-03-15T11:04:01.313Z,29.36
2023-03-15T11:05:02.347Z,29.72
2023-03-15T11:06:02.323Z,29.32
2023-03-15T11:07:02.338Z,29.57
2023-03-15T11:08:02.291Z,29.85
2023-03-15T11:09:02.320Z,30.09
2023-03-15T11:10:02.301Z,30.04
2023-03-15T11:11:02.291Z,30.24
2023-03-15T11:12:02.369Z,30.36
2023-03-15T11:13:01.267Z,30.68
2023-03-15T11:14:02.265Z,30.67
2023-03-15T11:15:02.236Z,30.87
2023-03-15T11:16:02.298Z,31.00
2023-03-15T11:17:02.810Z,31.18
2023-03-15T11:18:02.280Z,31.29
2023-03-15T11:19:02.224Z,31.44
2023-03-15T11:20:02.227Z,31.48
2023-03-15T11:21:02.225Z,31.95
2023-03-15T11:22:02.177Z,31.92
2023-03-15T11:23:02.184Z,32.08
2023-03-15T11:24:02.178Z,32.28
2023-03-15T11:25:02.243Z,32.40
2023-03-15T11:26:02.221Z,32.42
2023-03-15T11:27:02.172Z,32.58
2023-03-15T11:28:01.173Z,32.63
2023-03-15T11:29:02.140Z,33.06
2023-03-15T11:30:02.141Z,33.06
2023-03-15T11:31:02.131Z,33.17
2023-03-15T11:32:02.138Z,33.24
2023-03-15T11:33:01.174Z,33.35
2023-03-15T11:34:02.150Z,33.41
2023-03-15T11:35:01.123Z,33.50
2023-03-15T11:36:01.168Z,33.69
2023-03-15T11:37:08.388Z,33.80
2023-03-15T11:38:14.692Z,33.91
2023-03-15T11:39:03.201Z,34.02
2023-03-15T11:40:11.144Z,34.17
2023-03-15T11:41:02.094Z,34.26
2023-03-15T11:42:01.058Z,27.53
2023-03-15T11:43:01.073Z,27.27
2023-03-15T11:44:02.050Z,25.71
2023-03-15T11:45:02.037Z,27.66
2023-03-15T11:46:02.400Z,26.67
2023-03-15T11:47:02.052Z,28.06
2023-03-15T11:48:01.006Z,26.82
2023-03-15T11:49:02.023Z,26.01
2023-03-15T11:50:01.999Z,29.27
2023-03-15T11:51:01.984Z,29.51
2023-03-15T11:52:00.978Z,30.94
2023-03-15T11:53:02.012Z,29.60
2023-03-15T11:54:00.956Z,30.66
2023-03-15T11:55:01.972Z,30.69
2023-03-15T11:56:01.952Z,30.59
2023-03-15T11:57:01.953Z,30.95
2023-03-15T11:58:01.936Z,31.03
2023-03-15T11:59:01.922Z,31.01
2023-03-15T12:00:01.938Z,31.11
2023-03-15T12:01:01.937Z,31.23
2023-03-15T12:02:00.983Z,31.27
2023-03-15T12:03:01.994Z,31.31
2023-03-15T12:04:01.944Z,31.47
2023-03-15T12:05:15.923Z,31.69
2023-03-15T12:06:01.889Z,31.78
2023-03-15T12:07:01.865Z,31.92
2023-03-15T12:08:01.864Z,32.11
2023-03-15T12:09:00.864Z,32.14
2023-03-15T12:10:01.926Z,32.22
2023-03-15T12:11:01.832Z,32.42
2023-03-15T12:12:01.825Z,32.49
2023-03-15T12:13:01.834Z,32.49
2023-03-15T12:14:01.889Z,32.59
2023-03-15T12:15:01.887Z,32.80
2023-03-15T12:16:01.841Z,33.02
2023-03-15T12:17:00.776Z,33.16
2023-03-15T12:18:01.769Z,33.09
2023-03-15T12:19:00.777Z,33.34
2023-03-15T12:20:00.769Z,33.35
2023-03-15T12:21:01.797Z,33.53
2023-03-15T12:22:01.774Z,33.62
2023-03-15T12:23:01.754Z,33.79
2023-03-15T12:24:01.771Z,33.88
2023-03-15T12:25:01.764Z,34.21
2023-03-15T12:26:01.739Z,34.31
2023-03-15T12:27:01.720Z,34.33
2023-03-15T12:28:01.730Z,34.38
2023-03-15T12:29:01.687Z,34.48
2023-03-15T12:30:01.692Z,34.87
2023-03-15T12:31:01.829Z,34.92
2023-03-15T12:32:01.689Z,35.08
2023-03-15T12:33:01.790Z,35.06
2023-03-15T12:34:01.679Z,35.47
2023-03-15T12:35:01.656Z,35.71
2023-03-15T12:36:02.268Z,35.71
2023-03-15T12:37:01.658Z,35.86
2023-03-15T12:38:01.276Z,36.14
2023-03-15T12:39:00.644Z,36.02
2023-03-15T12:40:01.649Z,36.05
2023-03-15T12:41:01.644Z,36.04
2023-03-15T12:42:00.600Z,36.09
2023-03-15T12:43:01.608Z,36.19
2023-03-15T12:44:00.664Z,36.27
2023-03-15T12:45:01.700Z,36.34
2023-03-15T12:46:01.836Z,36.39
2023-03-15T12:47:00.808Z,36.49
2023-03-15T12:48:01.881Z,36.60
2023-03-15T12:49:00.905Z,36.77
2023-03-15T12:50:01.929Z,36.80
2023-03-15T12:51:01.969Z,36.83
2023-03-15T12:52:01.945Z,36.85
2023-03-15T12:53:01.940Z,36.90
2023-03-15T12:54:01.938Z,36.96
2023-03-15T12:55:02.099Z,37.04
2023-03-15T12:56:08.592Z,37.01
2023-03-15T12:57:01.935Z,37.06
2023-03-15T12:58:01.892Z,37.10
2023-03-15T12:59:00.872Z,37.01
2023-03-15T13:00:01.897Z,37.08
2023-03-15T13:01:00.905Z,36.98
2023-03-15T13:02:01.854Z,36.99
2023-03-15T13:03:02.177Z,37.08
2023-03-15T13:04:01.858Z,37.09
2023-03-15T13:05:01.839Z,36.71
2023-03-15T13:06:04.269Z,35.50
2023-03-15T13:07:01.844Z,36.05
2023-03-15T13:08:01.828Z,36.32
2023-03-15T13:09:01.821Z,36.22
2023-03-15T13:10:01.791Z,36.27
2023-03-15T13:11:01.814Z,36.61
2023-03-15T13:12:01.779Z,36.54
2023-03-15T13:13:01.809Z,36.54
2023-03-15T13:14:01.774Z,36.27
2023-03-15T13:15:01.772Z,36.60
2023-03-15T13:16:01.819Z,36.54
2023-03-15T13:17:01.759Z,36.32
2023-03-15T13:18:01.739Z,36.81
2023-03-15T13:19:01.734Z,36.81
2023-03-15T13:20:01.724Z,37.22
2023-03-15T13:21:01.727Z,37.51
2023-03-15T13:22:01.732Z,37.51
2023-03-15T13:23:00.724Z,37.15
2023-03-15T13:24:01.693Z,37.45
2023-03-15T13:25:00.677Z,37.70
2023-03-15T13:26:01.685Z,37.80
2023-03-15T13:27:01.671Z,37.86
2023-03-15T13:28:01.699Z,37.85
2023-03-15T13:29:01.689Z,37.59
2023-03-15T13:30:01.654Z,38.13
2023-03-15T13:31:01.647Z,37.92
2023-03-15T13:32:00.649Z,38.06
2023-03-15T13:33:01.681Z,34.19
2023-03-15T13:34:01.611Z,31.64
2023-03-15T13:35:01.636Z,29.33
2023-03-15T13:36:02.675Z,27.86
2023-03-15T13:37:01.637Z,27.70
2023-03-15T13:38:00.668Z,28.52
2023-03-15T13:39:01.731Z,28.91
2023-03-15T13:40:01.774Z,30.04
2023-03-15T13:41:01.798Z,30.68
2023-03-15T13:42:00.760Z,31.06
2023-03-15T13:43:01.830Z,31.38
2023-03-15T13:44:01.886Z,31.67
2023-03-15T13:45:01.993Z,31.76
2023-03-15T13:46:01.980Z,31.85
2023-03-15T13:47:02.028Z,32.01
2023-03-15T13:48:02.057Z,32.12
2023-03-15T13:49:02.061Z,32.33
2023-03-15T13:50:02.034Z,32.53
2023-03-15T13:51:02.055Z,32.90
2023-03-15T13:52:02.133Z,33.07
2023-03-15T13:53:02.050Z,33.11
2023-03-15T13:54:01.068Z,33.36
2023-03-15T13:55:02.123Z,33.53
2023-03-15T13:56:01.180Z,33.68
2023-03-15T13:57:02.207Z,33.89
2023-03-15T13:58:02.287Z,33.95
2023-03-15T13:59:01.346Z,34.13
2023-03-15T14:00:02.419Z,34.40
2023-03-15T14:01:02.488Z,34.47
2023-03-15T14:02:02.801Z,34.57
2023-03-15T14:03:02.676Z,34.75
2023-03-15T14:04:02.617Z,34.91
2023-03-15T14:05:02.650Z,35.03
2023-03-15T14:06:02.707Z,35.22
2023-03-15T14:07:01.743Z,35.39
2023-03-15T14:08:02.819Z,35.51
2023-03-15T14:09:02.847Z,35.88
2023-03-15T14:10:01.884Z,35.80
2023-03-15T14:11:02.925Z,36.15
2023-03-15T14:12:03.005Z,36.23
2023-03-15T14:13:03.021Z,36.33
2023-03-15T14:14:03.060Z,36.30
2023-03-15T14:15:03.131Z,36.55
2023-03-15T14:16:03.224Z,36.33
2023-03-15T14:17:05.717Z,36.49
2023-03-15T14:18:03.190Z,36.59
2023-03-15T14:19:03.188Z,37.12
2023-03-15T14:20:03.194Z,37.00
2023-03-15T14:21:03.177Z,36.91
2023-03-15T14:22:03.169Z,36.84
2023-03-15T14:23:03.218Z,37.01
2023-03-15T14:24:03.168Z,37.00
2023-03-15T14:25:03.146Z,36.66
2023-03-15T14:26:03.141Z,35.03
2023-03-15T14:27:02.120Z,34.55
2023-03-15T14:28:02.109Z,34.54
2023-03-15T14:29:03.120Z,34.93
2023-03-15T14:30:02.133Z,34.27
2023-03-15T14:31:03.149Z,34.20
2023-03-15T14:32:03.088Z,34.09
2023-03-15T14:33:02.261Z,34.10
2023-03-15T14:34:03.072Z,34.52
2023-03-15T14:35:03.073Z,34.54
2023-03-15T14:36:02.119Z,34.40
2023-03-15T14:37:02.076Z,34.54
2023-03-15T14:38:02.050Z,34.83
2023-03-15T14:39:02.067Z,34.65
2023-03-15T14:40:03.035Z,34.95
2023-03-15T14:41:03.023Z,34.67
2023-03-15T14:42:02.020Z,34.11
2023-03-15T14:43:03.026Z,34.65
2023-03-15T14:44:02.016Z,34.58
2023-03-15T14:45:03.028Z,34.84
2023-03-15T14:46:03.036Z,34.95
2023-03-15T14:47:02.986Z,34.49
2023-03-15T14:48:03.006Z,34.60
2023-03-15T14:49:03.006Z,34.47
2023-03-15T14:50:03.050Z,34.50
2023-03-15T14:51:02.964Z,34.22
2023-03-15T14:52:03.035Z,34.72
2023-03-15T14:53:02.956Z,34.59
2023-03-15T14:54:02.952Z,34.58
2023-03-15T14:55:02.911Z,34.48
2023-03-15T14:56:02.923Z,34.62
2023-03-15T14:57:02.918Z,34.61
2023-03-15T14:58:02.904Z,34.65
2023-03-15T14:59:03.491Z,34.89
2023-03-15T15:00:02.906Z,34.90
2023-03-15T15:01:01.915Z,34.96
2023-03-15T15:02:03.051Z,34.88
2023-03-15T15:03:02.867Z,34.92
2023-03-15T15:04:02.009Z,34.97
2023-03-15T15:05:02.887Z,34.91
2023-03-15T15:06:02.873Z,34.86
2023-03-15T15:07:02.880Z,35.06
2023-03-15T15:08:02.835Z,34.91
2023-03-15T15:09:02.829Z,35.08
2023-03-15T15:10:02.833Z,35.10
2023-03-15T15:11:02.831Z,34.92
2023-03-15T15:12:02.796Z,34.92
2023-03-15T15:13:06.361Z,35.01
2023-03-15T15:14:02.819Z,35.02
2023-03-15T15:15:02.780Z,35.22
2023-03-15T15:16:02.792Z,35.07
2023-03-15T15:17:02.776Z,35.11
2023-03-15T15:18:02.752Z,35.03
2023-03-15T15:19:02.769Z,35.11
2023-03-15T15:20:02.757Z,34.91
2023-03-15T15:21:02.778Z,35.98
2023-03-15T15:22:02.726Z,35.90
2023-03-15T15:23:01.718Z,36.41
2023-03-15T15:24:02.710Z,36.62
2023-03-15T15:25:02.703Z,36.59
2023-03-15T15:26:02.680Z,36.54
2023-03-15T15:27:02.693Z,36.60
2023-03-15T15:28:02.705Z,36.46
2023-03-15T15:29:02.696Z,36.88
2023-03-15T15:30:02.673Z,36.82
2023-03-15T15:31:02.709Z,36.91
2023-03-15T15:32:01.709Z,36.28
2023-03-15T15:33:02.668Z,36.42
2023-03-15T15:34:02.683Z,36.53
2023-03-15T15:35:02.678Z,36.41
2023-03-15T15:36:02.761Z,36.41
2023-03-15T15:37:02.790Z,36.31
2023-03-15T15:38:02.764Z,36.34
2023-03-15T15:39:04.982Z,36.35
2023-03-15T15:40:02.791Z,36.33
2023-03-15T15:41:02.785Z,36.36
2023-03-15T15:42:02.780Z,36.43
2023-03-15T15:43:02.776Z,36.50
2023-03-15T15:44:02.753Z,36.47
2023-03-15T15:45:02.738Z,36.47
2023-03-15T15:46:02.837Z,36.65
2023-03-15T15:47:02.741Z,36.59
2023-03-15T15:48:02.744Z,36.73
2023-03-15T15:49:02.807Z,36.76
2023-03-15T15:50:02.710Z,36.79
2023-03-15T15:51:02.688Z,36.86
2023-03-15T15:52:02.702Z,36.87
2023-03-15T15:53:02.709Z,36.83
2023-03-15T15:54:02.682Z,36.94
2023-03-15T15:55:02.673Z,36.91
2023-03-15T15:56:01.665Z,36.95
2023-03-15T15:57:02.667Z,36.80
2023-03-15T15:58:02.639Z,36.80
2023-03-15T15:59:01.663Z,36.82
2023-03-15T16:00:02.669Z,36.76
2023-03-15T16:01:01.629Z,36.80
2023-03-15T16:02:03.143Z,36.78
2023-03-15T16:03:02.719Z,36.79
2023-03-15T16:04:02.687Z,36.89
2023-03-15T16:05:02.745Z,36.96
2023-03-15T16:06:02.820Z,36.83
2023-03-15T16:07:02.953Z,36.80
2023-03-15T16:08:02.915Z,36.96
2023-03-15T16:09:02.983Z,36.79
2023-03-15T16:10:03.210Z,36.95
2023-03-15T16:11:03.067Z,37.14
2023-03-15T16:12:03.116Z,36.81
2023-03-15T16:13:03.185Z,36.83
2023-03-15T16:14:03.226Z,36.83
2023-03-15T16:15:03.304Z,37.05
2023-03-15T16:16:03.455Z,37.06
2023-03-15T16:17:03.420Z,36.90
2023-03-15T16:18:03.451Z,36.92
2023-03-15T16:19:03.532Z,36.94
2023-03-15T16:20:03.599Z,36.89
2023-03-15T16:21:03.642Z,36.88
2023-03-15T16:27:03.050Z,36.95
2023-03-15T16:32:33.376Z,37.17
2023-03-15T16:36:54.334Z,37.07
2023-03-15T16:40:32.680Z,37.00
2023-03-15T16:41:33.607Z,37.09
2023-03-15T16:44:59.825Z,37.26
2023-03-15T16:46:01.047Z,37.32